LBSF/SOF METAR and TAF weather

Enter ICAO airport designator
Station Type Date Time Source
LBSF METAR 2018/12/19 09:00 UTC NOAA

LBSF 190900Z 28007KT 9999 FEW013 SCT021 BKN049 M02/M05 Q1026 R99/29//95 NOSIG


Station Type Date Time Source
LBSF Decoded METAR 2018/12/19 09:00 UTC NOAA

Sofia Observ. , Bulgaria (LBSF) 42-39N 023-23E 595M
Dec 19, 2018 - 04:00 AM EST / 2018.12.19 0900 UTC
Wind: from the W (280 degrees) at 8 MPH (7 KT):0
Visibility: greater than 7 mile(s):0
Sky conditions: mostly cloudy
Temperature: 28 F (-2 C)
Windchill: 19 F (-7 C):1
Dew Point: 23 F (-5 C)
Relative Humidity: 79%
Pressure (altimeter): 30.30 in. Hg (1026 hPa)
ob: LBSF 190900Z 28007KT 9999 FEW013 SCT021 BKN049 M02/M05 Q1026 R99/29//95 NOSIG
cycle: 9

Station Type Date Time Source
LBSF TAF 2018/12/19 06:18 UTC NOAA

TAF LBSF 190500Z 1906/2006 28010KT 8000 SCT020 BKNC040 PROB40
TEMPO 1906/1910 5000 SN SCT010 OVC030
BECMG 1918/1920 VRB04KT 4000 BR
TEMPO 1922/2006 1200 BR BKN012 PROB40
TEMPO 2002/2005 0600 FZFG


Example: see airport list